createdAt,value
2022-08-05T00:00:18.451Z,96.30
2022-08-05T00:02:51.302Z,96.00
2022-08-05T00:05:27.171Z,96.00
2022-08-05T00:08:32.486Z,95.90
2022-08-05T00:11:00.761Z,95.70
2022-08-05T00:13:38.101Z,95.70
2022-08-05T00:16:12.472Z,95.80
2022-08-05T00:18:42.387Z,96.20
2022-08-05T00:21:14.406Z,96.40
2022-08-05T00:23:46.489Z,96.20
2022-08-05T00:26:23.151Z,96.10
2022-08-05T00:28:51.721Z,96.50
2022-08-05T00:31:53.273Z,96.30
2022-08-05T00:34:56.661Z,95.50
2022-08-05T00:37:12.833Z,96.00
2022-08-05T00:39:57.143Z,96.00
2022-08-05T00:42:37.015Z,95.90
2022-08-05T00:45:08.756Z,95.90
2022-08-05T00:47:57.076Z,95.90
2022-08-05T00:50:25.972Z,96.70
2022-08-05T00:52:55.292Z,96.90
2022-08-05T00:55:34.077Z,97.30
2022-08-05T00:58:12.134Z,97.50
2022-08-05T01:00:42.435Z,97.90
2022-08-05T01:03:12.620Z,97.50
2022-08-05T01:05:51.659Z,97.40
2022-08-05T01:08:41.080Z,97.70
2022-08-05T01:11:14.912Z,97.50
2022-08-05T01:14:01.045Z,97.40
2022-08-05T01:16:38.711Z,96.80
2022-08-05T01:19:17.120Z,97.30
2022-08-05T01:22:18.670Z,98.10
2022-08-05T01:25:40.457Z,97.40
2022-08-05T01:28:25.185Z,98.10
2022-08-05T01:30:57.382Z,98.70
2022-08-05T01:33:35.357Z,99.00
2022-08-05T01:36:13.140Z,99.60
2022-08-05T01:38:48.611Z,99.70
2022-08-05T01:41:21.847Z,99.50
2022-08-05T01:43:53.092Z,99.20
2022-08-05T01:46:42.625Z,99.10
2022-08-05T01:49:24.203Z,99.30
2022-08-05T01:51:58.361Z,99.80
2022-08-05T01:54:31.478Z,99.90
2022-08-05T01:58:09.490Z,99.90
2022-08-05T01:59:53.687Z,99.90
2022-08-05T02:02:28.436Z,99.90
2022-08-05T02:05:01.816Z,99.90
2022-08-05T02:07:32.002Z,99.90
2022-08-05T02:10:02.161Z,99.90
2022-08-05T02:12:36.621Z,99.90
2022-08-05T02:15:12.180Z,99.90
2022-08-05T02:18:27.929Z,99.90
2022-08-05T02:20:41.236Z,99.90
2022-08-05T02:23:12.897Z,99.90
2022-08-05T02:25:49.581Z,99.90
2022-08-05T02:28:29.203Z,99.90
2022-08-05T02:31:07.658Z,99.90
2022-08-05T02:33:48.338Z,99.90
2022-08-05T02:36:20.249Z,99.90
2022-08-05T02:38:53.089Z,99.90
2022-08-05T02:41:28.703Z,99.90
2022-08-05T02:44:11.983Z,99.90
2022-08-05T02:46:58.554Z,99.90
2022-08-05T02:49:36.448Z,99.90
2022-08-05T02:52:11.535Z,99.90
2022-08-05T02:54:51.122Z,99.90
2022-08-05T02:58:10.886Z,99.90
2022-08-05T03:00:12.613Z,99.90
2022-08-05T03:02:44.901Z,99.90
2022-08-05T03:05:13.399Z,99.90
2022-08-05T03:08:01.155Z,99.90
2022-08-05T03:10:31.178Z,99.90
2022-08-05T03:15:27.347Z,99.90
2022-08-05T03:17:58.047Z,99.90
2022-08-05T03:20:27.580Z,99.90
2022-08-05T03:22:57.302Z,99.90
2022-08-05T03:25:33.308Z,99.90
2022-08-05T03:28:18.431Z,99.90
2022-08-05T03:30:49.158Z,99.90
2022-08-05T03:33:19.354Z,99.90
2022-08-05T03:35:48.233Z,99.90
2022-08-05T03:38:32.798Z,99.90
2022-08-05T03:41:08.475Z,99.90
2022-08-05T03:44:07.993Z,99.90
2022-08-05T03:46:30.024Z,99.90
2022-08-05T03:49:02.243Z,99.90
2022-08-05T03:52:37.710Z,99.90
2022-08-05T03:55:50.310Z,99.90
2022-08-05T03:57:42.349Z,99.90
2022-08-05T04:00:15.616Z,99.90
2022-08-05T04:02:57.641Z,99.90
2022-08-05T04:05:33.553Z,99.90
2022-08-05T04:08:05.799Z,99.90
2022-08-05T04:10:45.121Z,99.90
2022-08-05T04:13:13.709Z,99.90
2022-08-05T04:16:02.812Z,99.90
2022-08-05T04:18:30.140Z,99.90
2022-08-05T04:20:59.963Z,99.90
2022-08-05T04:23:58.438Z,99.90
2022-08-05T04:26:18.315Z,99.90
2022-08-05T04:28:50.722Z,99.90
2022-08-05T04:31:20.351Z,99.90
2022-08-05T04:34:17.215Z,99.90
2022-08-05T04:36:49.642Z,99.90
2022-08-05T04:39:18.417Z,99.90
2022-08-05T04:41:48.196Z,99.90
2022-08-05T04:44:29.064Z,99.90
2022-08-05T04:46:58.531Z,99.90
2022-08-05T04:49:38.597Z,99.90
2022-08-05T04:52:16.192Z,99.90
2022-08-05T04:54:44.182Z,99.90
2022-08-05T04:57:12.257Z,99.90
2022-08-05T04:59:40.752Z,99.90
2022-08-05T05:02:37.656Z,99.90
2022-08-05T05:05:02.320Z,99.90
2022-08-05T05:07:35.694Z,99.90
2022-08-05T05:10:05.423Z,99.90
2022-08-05T05:12:34.442Z,99.90
2022-08-05T05:15:10.769Z,99.90
2022-08-05T05:17:56.657Z,99.90
2022-08-05T05:20:28.507Z,99.90
2022-08-05T05:22:58.638Z,99.90
2022-08-05T05:25:40.457Z,99.90
2022-08-05T05:28:09.395Z,99.90
2022-08-05T05:30:37.746Z,99.90
2022-08-05T05:33:16.562Z,99.90
2022-08-05T05:35:47.331Z,99.90
2022-08-05T05:38:27.084Z,99.90
2022-08-05T05:40:57.063Z,99.90
2022-08-05T05:43:56.477Z,99.90
2022-08-05T05:46:17.372Z,99.90
2022-08-05T05:48:48.914Z,99.90
2022-08-05T05:51:21.456Z,99.90
2022-08-05T05:53:57.583Z,99.90
2022-08-05T05:56:33.279Z,99.90
2022-08-05T05:59:05.142Z,99.90
2022-08-05T06:01:37.959Z,99.90
2022-08-05T06:04:11.373Z,99.90
2022-08-05T06:06:42.394Z,99.90
2022-08-05T06:09:18.072Z,99.90
2022-08-05T06:12:02.557Z,99.90
2022-08-05T06:14:31.139Z,99.90
2022-08-05T06:17:02.108Z,99.90
2022-08-05T06:19:56.908Z,99.90
2022-08-05T06:22:29.331Z,99.90
2022-08-05T06:24:59.044Z,99.90
2022-08-05T06:28:11.225Z,99.90
2022-08-05T06:30:20.060Z,99.90
2022-08-05T06:32:50.743Z,99.90
2022-08-05T06:36:04.022Z,99.90
2022-08-05T06:38:11.142Z,99.90
2022-08-05T06:40:44.331Z,99.90
2022-08-05T06:43:51.731Z,99.90
2022-08-05T06:46:07.351Z,99.90
2022-08-05T06:48:55.521Z,99.90
2022-08-05T06:51:29.892Z,99.90
2022-08-05T06:53:59.766Z,99.90
2022-08-05T06:56:29.517Z,99.90
2022-08-05T06:58:57.803Z,99.90
2022-08-05T07:01:27.611Z,99.90
2022-08-05T07:04:01.344Z,99.90
2022-08-05T07:06:30.403Z,99.90
2022-08-05T07:09:00.235Z,99.90
2022-08-05T07:11:36.961Z,99.90
2022-08-05T07:14:30.011Z,99.90
2022-08-05T07:17:58.677Z,99.90
2022-08-05T07:20:34.066Z,99.90
2022-08-05T07:22:38.661Z,99.90
2022-08-05T07:25:24.050Z,99.90
2022-08-05T07:28:03.789Z,99.90
2022-08-05T07:30:34.711Z,99.90
2022-08-05T07:33:10.642Z,99.90
2022-08-05T07:36:03.086Z,99.90
2022-08-05T07:38:35.675Z,99.90
2022-08-05T07:42:07.173Z,99.90
2022-08-05T07:44:06.426Z,99.90
2022-08-05T07:46:48.294Z,99.90
2022-08-05T07:49:18.051Z,99.90
2022-08-05T07:51:52.913Z,99.90
2022-08-05T07:54:30.689Z,99.90
2022-08-05T07:57:22.566Z,99.90
2022-08-05T07:59:51.438Z,99.90
2022-08-05T08:02:19.621Z,99.90
2022-08-05T08:04:55.480Z,99.90
2022-08-05T08:07:24.286Z,99.90
2022-08-05T08:09:56.536Z,99.90
2022-08-05T08:12:35.585Z,99.90
2022-08-05T08:15:15.141Z,99.90
2022-08-05T08:17:49.637Z,99.90
2022-08-05T08:21:00.144Z,99.90
2022-08-05T08:24:00.199Z,99.90
2022-08-05T08:26:00.373Z,99.90
2022-08-05T08:28:36.530Z,99.90
2022-08-05T08:31:07.641Z,99.90
2022-08-05T08:33:38.309Z,99.90
2022-08-05T08:36:37.411Z,99.90
2022-08-05T08:38:56.794Z,99.90
2022-08-05T08:41:52.638Z,99.90
2022-08-05T08:45:17.009Z,99.90
2022-08-05T08:47:46.811Z,99.90
2022-08-05T08:50:06.178Z,99.90
2022-08-05T08:52:47.393Z,99.90
2022-08-05T08:56:02.035Z,99.90
2022-08-05T08:58:09.897Z,99.90
2022-08-05T09:00:42.307Z,99.90
2022-08-05T09:03:16.240Z,99.90
2022-08-05T09:06:08.826Z,99.90
2022-08-05T09:08:40.072Z,99.70
2022-08-05T09:11:12.204Z,99.00
2022-08-05T09:14:09.517Z,98.90
2022-08-05T09:16:31.177Z,98.40
2022-08-05T09:19:00.648Z,98.50
2022-08-05T09:22:28.702Z,98.20
2022-08-05T09:24:17.727Z,97.90
2022-08-05T09:26:51.701Z,95.60
2022-08-05T09:29:20.459Z,95.70
2022-08-05T09:32:41.248Z,95.60
2022-08-05T09:34:58.485Z,95.40
2022-08-05T09:38:16.960Z,95.40
2022-08-05T09:40:32.274Z,94.60
2022-08-05T09:43:01.449Z,94.50
2022-08-05T09:46:07.312Z,94.10
2022-08-05T09:48:30.052Z,93.40
2022-08-05T09:51:01.750Z,92.90
2022-08-05T09:53:54.034Z,92.90
2022-08-05T09:56:26.743Z,92.60
2022-08-05T09:58:59.254Z,92.00
2022-08-05T10:01:31.823Z,92.00
2022-08-05T10:04:04.138Z,92.00
2022-08-05T10:06:41.451Z,90.60
2022-08-05T10:09:27.824Z,90.90
2022-08-05T10:12:30.604Z,90.60
2022-08-05T10:15:13.929Z,91.30
2022-08-05T10:17:56.777Z,90.90
2022-08-05T10:20:27.057Z,90.30
2022-08-05T10:22:58.466Z,89.70
2022-08-05T10:25:26.756Z,90.00
2022-08-05T10:28:13.056Z,88.30
2022-08-05T10:32:51.792Z,87.30
2022-08-05T10:33:35.115Z,87.40
2022-08-05T10:36:05.448Z,86.00
2022-08-05T10:38:37.376Z,85.80
2022-08-05T10:41:13.883Z,86.90
2022-08-05T10:43:51.854Z,86.50
2022-08-05T10:46:24.071Z,85.10
2022-08-05T10:49:02.686Z,84.30
2022-08-05T10:51:57.714Z,84.80
2022-08-05T10:54:56.605Z,82.50
2022-08-05T10:57:32.348Z,82.80
2022-08-05T11:00:16.095Z,83.60
2022-08-05T11:03:23.076Z,81.90
2022-08-05T11:06:15.631Z,82.80
2022-08-05T11:09:31.914Z,83.70
2022-08-05T11:12:54.498Z,83.20
2022-08-05T11:15:59.523Z,83.40
2022-08-05T11:18:27.254Z,84.60
2022-08-05T11:20:59.118Z,85.80
2022-08-05T11:24:02.502Z,85.70
2022-08-05T11:26:28.281Z,83.60
2022-08-05T11:29:06.744Z,83.90
2022-08-05T11:31:56.446Z,83.10
2022-08-05T11:34:38.660Z,83.40
2022-08-05T11:38:28.186Z,81.80
2022-08-05T11:40:03.213Z,82.00
2022-08-05T11:42:37.963Z,80.00
2022-08-05T11:45:14.283Z,79.10
2022-08-05T11:47:54.826Z,80.20
2022-08-05T11:50:23.299Z,77.70
2022-08-05T11:52:57.683Z,79.50
2022-08-05T11:55:32.332Z,78.70
2022-08-05T11:58:09.941Z,79.50
2022-08-05T12:00:44.362Z,78.50
2022-08-05T12:03:28.842Z,78.00
2022-08-05T12:06:01.509Z,79.00
2022-08-05T12:08:31.725Z,78.80
2022-08-05T12:11:05.975Z,76.90
2022-08-05T12:13:48.933Z,76.90
2022-08-05T12:16:25.420Z,75.70
2022-08-05T12:18:54.252Z,75.30
2022-08-05T12:21:24.527Z,74.10
2022-08-05T12:23:58.459Z,73.30
2022-08-05T12:26:32.381Z,73.60
2022-08-05T12:29:01.460Z,73.30
2022-08-05T12:31:43.749Z,72.90
2022-08-05T12:34:20.720Z,71.80
2022-08-05T12:36:54.207Z,71.30
2022-08-05T12:39:23.484Z,71.70
2022-08-05T12:41:59.389Z,71.30
2022-08-05T12:44:33.469Z,69.00
2022-08-05T12:47:04.355Z,69.30
2022-08-05T12:50:03.484Z,68.60
2022-08-05T12:52:39.742Z,68.80
2022-08-05T12:55:22.676Z,69.50
2022-08-05T12:58:48.312Z,69.60
2022-08-05T13:02:02.435Z,70.00
2022-08-05T13:03:39.102Z,67.50
2022-08-05T13:06:16.110Z,69.00
2022-08-05T13:08:50.955Z,68.70
2022-08-05T13:11:57.933Z,68.70
2022-08-05T13:14:25.071Z,68.30
2022-08-05T13:17:10.240Z,68.30
2022-08-05T13:19:51.982Z,69.20
2022-08-05T13:22:28.351Z,67.20
2022-08-05T13:25:00.407Z,67.60
2022-08-05T13:27:37.974Z,67.50
2022-08-05T13:30:32.968Z,66.30
2022-08-05T13:32:57.268Z,66.70
2022-08-05T13:35:47.342Z,67.90
